createdAt,value
2017-09-30T10:37:57.595Z,22.21
2017-09-30T10:39:20.199Z,22.15
2017-09-30T10:40:42.043Z,22.02
2017-09-30T10:42:03.566Z,21.98
2017-09-30T10:43:25.764Z,21.83
2017-09-30T10:44:47.924Z,21.75
2017-09-30T10:46:10.469Z,21.62
2017-09-30T10:47:32.304Z,21.59
2017-09-30T10:48:55.124Z,21.42
2017-09-30T10:50:16.643Z,21.44
2017-09-30T10:51:38.511Z,21.28
2017-09-30T10:53:00.730Z,21.25
2017-09-30T10:54:22.875Z,21.22
2017-09-30T10:55:45.037Z,21.24
2017-09-30T10:57:07.594Z,21.06
2017-09-30T10:58:29.752Z,21.04
2017-09-30T10:59:51.654Z,21.01
2017-09-30T11:01:14.138Z,21.1
2017-09-30T11:02:36.394Z,21.17
2017-09-30T11:03:58.269Z,21.32
2017-09-30T11:05:21.031Z,21.35
2017-09-30T11:06:43.523Z,21.59
2017-09-30T11:08:05.460Z,21.59
2017-09-30T11:09:27.681Z,21.71
2017-09-30T11:10:49.785Z,21.98
2017-09-30T11:12:12.314Z,22.03
2017-09-30T11:13:34.486Z,21.61
2017-09-30T11:14:56.975Z,21.56
2017-09-30T11:16:19.941Z,21.42
2017-09-30T11:17:45.174Z,21.4
2017-09-30T11:19:09.606Z,21.43
2017-09-30T11:20:35.964Z,21.32
2017-09-30T11:22:01.788Z,21.44
2017-09-30T11:23:25.927Z,21.43
2017-09-30T11:24:51.513Z,21.61
2017-09-30T11:26:16.946Z,21.69
2017-09-30T11:27:43.503Z,21.64
2017-09-30T11:29:07.296Z,21.61
2017-09-30T11:30:31.850Z,21.65
2017-09-30T11:31:56.212Z,21.53
2017-09-30T11:33:20.187Z,21.56
2017-09-30T11:34:44.285Z,21.24
2017-09-30T11:36:07.791Z,21.25
2017-09-30T11:37:32.134Z,21.37
2017-09-30T11:38:56.172Z,21.35
2017-09-30T11:40:20.800Z,21.34
2017-09-30T11:41:45.354Z,21.46
2017-09-30T11:43:09.656Z,21.59
2017-09-30T11:44:34.783Z,21.54
2017-09-30T11:45:59.683Z,21.5
2017-09-30T11:47:23.504Z,21.5
2017-09-30T11:48:47.727Z,21.49
2017-09-30T11:50:12.598Z,21.56
2017-09-30T11:51:37.767Z,21.69
2017-09-30T11:53:01.729Z,21.74
2017-09-30T11:54:24.940Z,21.9
2017-09-30T11:55:49.578Z,21.96
2017-09-30T11:57:13.438Z,22
2017-09-30T11:58:37.594Z,22.02
2017-09-30T12:00:02.148Z,22.09
2017-09-30T12:01:25.597Z,21.92
2017-09-30T12:02:49.706Z,21.75
2017-09-30T12:04:13.232Z,21.58
2017-09-30T12:05:37.669Z,21.58
2017-09-30T12:07:01.853Z,21.58
2017-09-30T12:08:26.716Z,21.53
2017-09-30T12:09:50.475Z,21.46
2017-09-30T12:11:14.361Z,21.29
2017-09-30T12:12:38.198Z,21.17
2017-09-30T12:14:02.319Z,21.14
2017-09-30T12:15:25.744Z,21.14
2017-09-30T12:16:49.563Z,21.17
2017-09-30T12:18:14.499Z,21.13
2017-09-30T12:19:39.368Z,21.12
2017-09-30T12:21:03.308Z,21.19
2017-09-30T12:22:28.917Z,21.17
2017-09-30T12:23:53.228Z,21.13
2017-09-30T12:25:16.556Z,21.16
2017-09-30T12:26:40.917Z,21.17
2017-09-30T12:28:05.797Z,21.32
2017-09-30T12:29:30.592Z,21.42
2017-09-30T12:30:55.705Z,21.42
2017-09-30T12:32:20.405Z,21.32
2017-09-30T12:33:44.029Z,21.28
2017-09-30T12:35:08.162Z,21.27
2017-09-30T12:36:31.597Z,21.34
2017-09-30T12:37:55.384Z,21.34
2017-09-30T12:39:19.075Z,21.29
2017-09-30T12:40:43.141Z,21.44
2017-09-30T12:42:06.122Z,21.31
2017-09-30T12:43:30.247Z,21.17
2017-09-30T12:44:54.235Z,21.03
2017-09-30T12:46:18.158Z,20.97
2017-09-30T12:47:42.382Z,20.74
2017-09-30T12:49:05.558Z,20.58
2017-09-30T12:50:29.843Z,20.54
2017-09-30T12:51:54.399Z,20.5
2017-09-30T12:53:18.318Z,20.35
2017-09-30T12:54:42.474Z,20.2
2017-09-30T12:56:05.503Z,20.23
2017-09-30T12:57:30.625Z,20.06
2017-09-30T12:58:55.433Z,20.06
2017-09-30T13:00:19.816Z,20.03
2017-09-30T13:01:43.241Z,19.98
2017-09-30T13:03:07.332Z,19.95
2017-09-30T13:04:31.029Z,19.94
2017-09-30T13:05:55.777Z,19.71
2017-09-30T13:07:19.878Z,19.71
2017-09-30T13:08:42.080Z,19.68
2017-09-30T13:10:04.257Z,19.65
2017-09-30T13:11:26.105Z,19.66
2017-09-30T13:12:48.587Z,19.73
2017-09-30T13:14:10.450Z,19.73
2017-09-30T13:15:32.972Z,19.65
2017-09-30T13:16:55.504Z,19.66
2017-09-30T13:18:17.339Z,19.65
2017-09-30T13:19:40.084Z,19.61
2017-09-30T13:21:02.575Z,19.59
2017-09-30T13:22:24.782Z,19.65
2017-09-30T13:23:47.266Z,19.46
2017-09-30T13:25:10.106Z,19.48
2017-09-30T13:26:31.938Z,19.61
2017-09-30T13:27:54.424Z,19.55
2017-09-30T13:29:16.636Z,19.56
2017-09-30T13:30:39.160Z,19.62
2017-09-30T13:32:01.700Z,19.69
2017-09-30T13:33:23.731Z,19.62
2017-09-30T13:34:45.883Z,19.73
2017-09-30T13:36:08.046Z,19.73
2017-09-30T13:37:30.534Z,19.77
2017-09-30T13:38:52.730Z,19.91
2017-09-30T13:40:15.234Z,19.94
2017-09-30T13:41:37.534Z,19.94
2017-09-30T13:43:00.293Z,19.91
2017-09-30T13:44:22.573Z,19.73
2017-09-30T13:45:45.069Z,19.74
2017-09-30T13:47:07.292Z,19.71
2017-09-30T13:48:29.774Z,19.74
2017-09-30T13:49:52.310Z,19.63
2017-09-30T13:51:14.784Z,19.62
2017-09-30T13:52:37.265Z,19.48
2017-09-30T13:53:59.747Z,19.39
2017-09-30T13:55:21.579Z,19.37
2017-09-30T13:56:44.066Z,19.21
2017-09-30T13:58:06.553Z,19.16
2017-09-30T13:59:29.049Z,19.16
2017-09-30T14:00:51.534Z,19.13
2017-09-30T14:02:13.713Z,19.25
2017-09-30T14:03:35.852Z,19.26
2017-09-30T14:04:57.672Z,19.28
2017-09-30T14:06:20.140Z,19.25
2017-09-30T14:07:42.273Z,19.28
2017-09-30T14:09:04.794Z,19.28
2017-09-30T14:10:26.635Z,19.26
2017-09-30T14:11:48.825Z,19.21
2017-09-30T14:13:11.044Z,19.13
2017-09-30T14:14:33.664Z,19.06
2017-09-30T14:15:55.875Z,19.07
2017-09-30T14:17:18.375Z,19.08
2017-09-30T14:18:40.550Z,19.1
2017-09-30T14:20:03.026Z,18.99
2017-09-30T14:21:25.226Z,18.98
2017-09-30T14:22:47.748Z,18.95
2017-09-30T14:24:09.993Z,18.98
2017-09-30T14:25:31.618Z,19.08
2017-09-30T14:26:53.885Z,19.08
2017-09-30T14:28:16.155Z,19.14
2017-09-30T14:29:38.324Z,19.11
2017-09-30T14:31:00.607Z,19.1
2017-09-30T14:32:22.854Z,19.26
2017-09-30T14:33:45.053Z,19.39
2017-09-30T14:35:06.926Z,19.25
2017-09-30T14:36:29.497Z,19.22
2017-09-30T14:37:51.976Z,19.06
2017-09-30T14:39:14.184Z,19.06
2017-09-30T14:40:36.386Z,19.18
2017-09-30T14:41:58.627Z,19.1
2017-09-30T14:43:20.800Z,19.04
2017-09-30T14:44:42.944Z,19.07
2017-09-30T14:46:04.851Z,19.04
2017-09-30T14:47:26.353Z,19.04
2017-09-30T14:48:48.502Z,18.95
2017-09-30T14:50:10.380Z,18.95
2017-09-30T14:51:32.568Z,18.99
2017-09-30T14:52:55.083Z,18.85
2017-09-30T14:54:16.917Z,18.82
2017-09-30T14:55:38.755Z,18.9
2017-09-30T14:57:00.605Z,18.75
2017-09-30T14:58:22.765Z,18.76
2017-09-30T14:59:45.358Z,18.76
2017-09-30T15:01:07.958Z,18.72
2017-09-30T15:02:30.125Z,18.66
2017-09-30T15:03:52.324Z,18.63
2017-09-30T15:05:14.711Z,18.69
2017-09-30T15:06:37.183Z,18.63
2017-09-30T15:07:59.354Z,18.63
2017-09-30T15:09:21.545Z,18.62
2017-09-30T15:10:44.144Z,18.6
2017-09-30T15:12:06.654Z,18.62
2017-09-30T15:13:28.168Z,18.45
2017-09-30T15:14:50.622Z,18.39
2017-09-30T15:16:12.130Z,18.3
2017-09-30T15:17:34.746Z,18.3
2017-09-30T15:18:56.557Z,18.23
2017-09-30T15:20:19.395Z,18.12
2017-09-30T15:21:41.914Z,18.2
2017-09-30T15:23:04.168Z,18.14
2017-09-30T15:24:25.685Z,18.21
2017-09-30T15:25:49.706Z,18.26
2017-09-30T15:27:12.205Z,18.3
2017-09-30T15:28:34.716Z,18.36
2017-09-30T15:29:57.207Z,18.36
2017-09-30T15:31:19.405Z,18.39
2017-09-30T15:32:41.865Z,18.47
2017-09-30T15:34:04.026Z,18.5
2017-09-30T15:35:26.746Z,18.51
2017-09-30T15:36:49.608Z,18.6
2017-09-30T15:38:12.101Z,18.6
2017-09-30T15:39:34.678Z,18.5
2017-09-30T15:40:56.808Z,18.57
2017-09-30T15:42:19.658Z,18.54
2017-09-30T15:43:42.174Z,18.54
2017-09-30T15:45:04.015Z,18.58
2017-09-30T15:46:25.861Z,18.58
2017-09-30T15:47:48.097Z,18.6
2017-09-30T15:49:10.595Z,18.58
2017-09-30T15:50:33.045Z,18.58
2017-09-30T15:51:55.274Z,18.6
2017-09-30T15:53:17.498Z,18.55
2017-09-30T15:54:39.649Z,18.54
2017-09-30T15:56:02.163Z,18.51
2017-09-30T15:57:24.126Z,18.52
2017-09-30T15:58:46.298Z,18.52
2017-09-30T16:00:07.834Z,18.6
2017-09-30T16:01:30.007Z,18.51
2017-09-30T16:02:52.516Z,18.5
2017-09-30T16:04:15.084Z,18.54
2017-09-30T16:05:37.235Z,18.45
2017-09-30T16:06:59.731Z,18.5
2017-09-30T16:08:21.885Z,18.45
2017-09-30T16:09:43.780Z,18.41
2017-09-30T16:11:05.995Z,18.36
2017-09-30T16:12:27.825Z,18.39
2017-09-30T16:13:50.119Z,18.48
2017-09-30T16:15:12.609Z,18.42
2017-09-30T16:16:34.826Z,18.39
2017-09-30T16:17:57.005Z,18.39
2017-09-30T16:19:19.164Z,18.35
2017-09-30T16:20:41.339Z,18.39
2017-09-30T16:22:03.605Z,18.32
2017-09-30T16:23:25.754Z,18.3
2017-09-30T16:24:47.630Z,18.3
2017-09-30T16:26:10.180Z,18.3
2017-09-30T16:27:32.421Z,18.26
2017-09-30T16:28:54.947Z,18.23
2017-09-30T16:30:17.275Z,18.12
2017-09-30T16:31:39.449Z,18.27
2017-09-30T16:33:01.666Z,18.21
2017-09-30T16:34:23.183Z,18.05
2017-09-30T16:35:45.443Z,18.07
2017-09-30T16:37:07.413Z,18.11
2017-09-30T16:38:29.894Z,17.93
2017-09-30T16:39:52.713Z,17.95
2017-09-30T16:41:14.555Z,17.84
2017-09-30T16:42:36.721Z,17.79
2017-09-30T16:43:58.895Z,17.75
2017-09-30T16:45:21.164Z,17.77
2017-09-30T16:46:43.135Z,17.63
2017-09-30T16:48:05.637Z,17.71
2017-09-30T16:49:27.897Z,17.63
2017-09-30T16:50:50.186Z,17.7
2017-09-30T16:52:12.709Z,17.66
2017-09-30T16:53:35.197Z,17.54
2017-09-30T16:54:57.369Z,17.46
2017-09-30T16:56:19.556Z,17.21
2017-09-30T16:57:42.036Z,17.15
2017-09-30T16:59:04.543Z,17.01
2017-09-30T17:00:26.772Z,16.88
2017-09-30T17:01:48.438Z,16.7
2017-09-30T17:03:10.429Z,16.57
2017-09-30T17:04:46.995Z,16.5
2017-09-30T17:06:09.208Z,16.42
2017-09-30T17:07:30.856Z,16.34
2017-09-30T17:08:52.515Z,16.24
2017-09-30T17:10:14.485Z,16.02
2017-09-30T17:11:36.215Z,15.8
2017-09-30T17:12:58.217Z,15.68
2017-09-30T17:14:19.883Z,15.67
2017-09-30T17:15:41.927Z,15.43
2017-09-30T17:17:03.269Z,15.36
2017-09-30T17:18:25.031Z,15.19
2017-09-30T17:19:46.675Z,15.06
2017-09-30T17:21:08.657Z,14.96
2017-09-30T17:22:30.645Z,15.06
2017-09-30T17:23:52.655Z,14.95
2017-09-30T17:25:14.325Z,14.89
2017-09-30T17:26:37.016Z,14.84
2017-09-30T17:27:59.293Z,14.88
2017-09-30T17:29:22.474Z,14.73
2017-09-30T17:30:47.186Z,14.72
2017-09-30T17:32:09.864Z,14.65
2017-09-30T17:33:31.735Z,14.68
2017-09-30T17:34:53.675Z,14.58
2017-09-30T17:36:16.336Z,14.47
2017-09-30T17:37:38.575Z,14.4
2017-09-30T17:39:01.200Z,14.32
2017-09-30T17:40:23.478Z,14.25
2017-09-30T17:41:45.715Z,14.25
2017-09-30T17:43:08.233Z,14.24
2017-09-30T17:44:30.873Z,14.32
2017-09-30T17:45:53.214Z,14.21
2017-09-30T17:47:15.770Z,14.24
2017-09-30T17:48:37.620Z,14.17
2017-09-30T17:50:00.126Z,14.15
2017-09-30T17:51:22.680Z,14.14
2017-09-30T17:52:45.180Z,14.18
2017-09-30T17:54:06.434Z,14.12
2017-09-30T17:55:28.304Z,14.06
2017-09-30T17:56:50.798Z,14.02
2017-09-30T17:58:13.306Z,13.97
2017-09-30T17:59:34.973Z,13.99
2017-09-30T18:00:56.310Z,13.92
2017-09-30T18:02:17.983Z,13.89
2017-09-30T18:03:39.971Z,13.81
2017-09-30T18:05:01.977Z,13.77
2017-09-30T18:06:23.967Z,13.79
2017-09-30T18:07:45.775Z,13.78
2017-09-30T18:09:07.420Z,13.75
2017-09-30T18:10:29.417Z,13.77
2017-09-30T18:11:51.423Z,13.69
2017-09-30T18:13:12.773Z,13.73
2017-09-30T18:14:34.853Z,13.73
2017-09-30T18:15:57.210Z,13.69
2017-09-30T18:17:19.174Z,13.67
2017-09-30T18:18:41.196Z,13.73
2017-09-30T18:20:03.164Z,13.73
2017-09-30T18:21:25.478Z,13.71
2017-09-30T18:22:47.444Z,13.62
2017-09-30T18:24:08.792Z,13.66
2017-09-30T18:25:30.794Z,13.62
2017-09-30T18:26:53.133Z,13.57
2017-09-30T18:28:15.171Z,13.6
2017-09-30T18:29:36.814Z,13.48
2017-09-30T18:30:58.793Z,13.51
2017-09-30T18:32:20.418Z,13.51
2017-09-30T18:33:42.072Z,13.44
2017-09-30T18:35:03.848Z,13.32
2017-09-30T18:36:25.491Z,13.32
2017-09-30T18:37:47.513Z,13.29
2017-09-30T18:39:09.171Z,13.23
2017-09-30T18:40:30.815Z,13.14
2017-09-30T18:41:52.814Z,13.2
2017-09-30T18:43:14.793Z,13.17
2017-09-30T18:44:36.775Z,13.14
2017-09-30T18:45:58.434Z,13.05
2017-09-30T18:47:20.110Z,13.05
2017-09-30T18:48:41.767Z,13.12
2017-09-30T18:50:03.087Z,13.03
2017-09-30T18:51:25.144Z,12.93
2017-09-30T18:52:47.134Z,12.96
2017-09-30T18:54:09.114Z,12.96
2017-09-30T18:55:30.756Z,12.96
2017-09-30T18:56:52.710Z,12.95
2017-09-30T18:58:14.444Z,12.97
2017-09-30T18:59:36.465Z,13.01
2017-09-30T19:00:57.799Z,13
2017-09-30T19:02:19.124Z,12.97
2017-09-30T19:03:41.195Z,12.95
2017-09-30T19:05:03.524Z,13.01
2017-09-30T19:06:24.864Z,13
2017-09-30T19:07:46.516Z,12.92
2017-09-30T19:09:08.635Z,13.07
2017-09-30T19:10:30.296Z,13.07
2017-09-30T19:11:52.264Z,13.08
2017-09-30T19:13:13.935Z,13.05
2017-09-30T19:14:35.582Z,13.15
2017-09-30T19:15:56.915Z,13.12
2017-09-30T19:17:19.003Z,13.19
2017-09-30T19:18:40.697Z,13.1
2017-09-30T19:20:02.665Z,13.17
2017-09-30T19:21:24.015Z,13.15
2017-09-30T19:22:45.974Z,13.1
2017-09-30T19:24:07.738Z,13.23
2017-09-30T19:25:29.757Z,13.1
2017-09-30T19:26:51.756Z,13.17
2017-09-30T19:28:13.417Z,13.23
2017-09-30T19:29:35.216Z,13.2
2017-09-30T19:30:57.195Z,13.22
2017-09-30T19:32:19.220Z,13.19
2017-09-30T19:33:40.878Z,13.2
2017-09-30T19:35:02.851Z,13.23
2017-09-30T19:36:24.863Z,13.29
2017-09-30T19:37:46.884Z,13.2
2017-09-30T19:39:08.886Z,13.3
2017-09-30T19:40:30.885Z,13.23
2017-09-30T19:41:52.956Z,13.19
2017-09-30T19:43:14.926Z,13.19
2017-09-30T19:44:36.587Z,13.2
2017-09-30T19:45:58.259Z,13.25
2017-09-30T19:47:20.253Z,13.22
2017-09-30T19:48:41.927Z,13.15
2017-09-30T19:50:03.688Z,13.19
2017-09-30T19:51:25.666Z,13.07
2017-09-30T19:52:47.674Z,13.08
2017-09-30T19:54:09.395Z,13.07
2017-09-30T19:55:31.382Z,13.03
2017-09-30T19:56:52.724Z,13.11
2017-09-30T19:58:14.446Z,13.12
2017-09-30T19:59:35.806Z,13.03
2017-09-30T20:00:57.485Z,13.05
2017-09-30T20:02:19.188Z,13.03
2017-09-30T20:03:41.193Z,13
2017-09-30T20:05:03.234Z,13.01
2017-09-30T20:06:25.217Z,12.96
2017-09-30T20:07:46.874Z,12.93
2017-09-30T20:09:08.835Z,12.93
2017-09-30T20:10:31.177Z,12.96
2017-09-30T20:11:52.864Z,12.93
2017-09-30T20:13:14.948Z,12.89
2017-09-30T20:14:36.625Z,12.97
2017-09-30T20:15:58.963Z,12.96
2017-09-30T20:17:20.722Z,12.93
2017-09-30T20:18:42.826Z,12.96
2017-09-30T20:20:04.824Z,12.93
2017-09-30T20:21:27.186Z,12.93
2017-09-30T20:22:48.896Z,12.93
2017-09-30T20:24:10.612Z,12.96
2017-09-30T20:25:32.318Z,13.07
2017-09-30T20:26:54.387Z,12.97
2017-09-30T20:28:16.366Z,13.03
2017-09-30T20:29:38.333Z,13.03
2017-09-30T20:31:00.103Z,13.03
2017-09-30T20:32:22.117Z,13.05
2017-09-30T20:33:43.768Z,13.04
2017-09-30T20:35:05.465Z,13.11
2017-09-30T20:36:27.138Z,13.07
2017-09-30T20:37:49.336Z,13.07
2017-09-30T20:39:11.229Z,13.07
2017-09-30T20:40:33.091Z,13.05
2017-09-30T20:41:55.287Z,13.05
2017-09-30T20:43:17.236Z,13.08
2017-09-30T20:44:39.867Z,13.11
2017-09-30T20:46:02.361Z,13.11
2017-09-30T20:47:23.906Z,13.04
2017-09-30T20:48:46.235Z,13
2017-09-30T20:50:08.412Z,13.04
2017-09-30T20:51:30.901Z,13.07
2017-09-30T20:52:52.766Z,13.11
2017-09-30T20:54:15.326Z,13.1
2017-09-30T20:55:37.843Z,13.11
2017-09-30T20:57:00.046Z,13.07
2017-09-30T20:58:22.335Z,13.05
2017-09-30T20:59:45.047Z,13.12
2017-09-30T21:01:07.253Z,13.08
2017-09-30T21:02:29.769Z,13.12
2017-09-30T21:03:51.955Z,13.07
2017-09-30T21:05:14.475Z,13.08
2017-09-30T21:06:36.974Z,13.05
2017-09-30T21:07:59.597Z,13.1
2017-09-30T21:09:21.543Z,13.07
2017-09-30T21:10:44.023Z,13.11
2017-09-30T21:12:06.493Z,13.07
2017-09-30T21:13:28.956Z,13.07
2017-09-30T21:14:51.112Z,13.03
2017-09-30T21:16:13.292Z,13.08
2017-09-30T21:17:35.264Z,13.05
2017-09-30T21:18:57.442Z,13.03
2017-09-30T21:20:19.938Z,13.07
2017-09-30T21:21:42.404Z,13.07
2017-09-30T21:23:04.627Z,13.03
2017-09-30T21:24:27.196Z,13.1
2017-09-30T21:25:49.769Z,13.05
2017-09-30T21:27:12.415Z,13.07
2017-09-30T21:28:34.582Z,13.08
2017-09-30T21:29:56.484Z,13.03
2017-09-30T21:31:18.784Z,13.05
2017-09-30T21:32:41.297Z,13.1
2017-09-30T21:34:03.147Z,13.08
2017-09-30T21:35:24.983Z,13.1
2017-09-30T21:36:46.505Z,13.04
2017-09-30T21:38:08.651Z,13.08
2017-09-30T21:39:30.506Z,13.04
2017-09-30T21:40:52.997Z,13.15
2017-09-30T21:42:15.489Z,13.19
2017-09-30T21:43:37.734Z,13.07
2017-09-30T21:45:00.294Z,13.08
2017-09-30T21:46:21.793Z,13.1
2017-09-30T21:47:44.251Z,13.11
2017-09-30T21:49:06.712Z,13.05
2017-09-30T21:50:29.192Z,13.07
2017-09-30T21:51:50.693Z,13.04
2017-09-30T21:53:12.199Z,13.07
2017-09-30T21:54:34.383Z,13.04
2017-09-30T21:55:56.904Z,13.14
2017-09-30T21:57:19.363Z,13.03
2017-09-30T21:58:41.195Z,13.12
2017-09-30T22:00:03.635Z,13.05
2017-09-30T22:01:26.210Z,13.12
2017-09-30T22:02:48.662Z,13.1
2017-09-30T22:04:10.852Z,13.04
2017-09-30T22:05:32.999Z,13.07
2017-09-30T22:06:55.466Z,13.05
2017-09-30T22:08:17.299Z,13.05
2017-09-30T22:09:39.973Z,13.03
2017-09-30T22:11:02.106Z,13.07
2017-09-30T22:12:24.682Z,13.07
2017-09-30T22:13:47.144Z,13.03
2017-09-30T22:15:09.617Z,13.07
2017-09-30T22:16:32.106Z,13.04
2017-09-30T22:17:54.259Z,13.1
2017-09-30T22:19:16.795Z,13.05
2017-09-30T22:20:38.964Z,13.07
2017-09-30T22:22:01.496Z,12.95
2017-09-30T22:23:24.021Z,13.01
2017-09-30T22:24:45.896Z,13.08
2017-09-30T22:26:08.144Z,13.05
2017-09-30T22:27:30.332Z,13
2017-09-30T22:28:52.574Z,13.05
2017-09-30T22:30:14.735Z,13
2017-09-30T22:31:36.995Z,12.96
2017-09-30T22:32:59.203Z,13
2017-09-30T22:34:20.732Z,12.97
2017-09-30T22:35:42.885Z,13
2017-09-30T22:37:04.706Z,13
2017-09-30T22:38:27.532Z,13.01
2017-09-30T22:39:49.373Z,12.93
2017-09-30T22:41:10.900Z,13.03
2017-09-30T22:42:32.710Z,12.87
2017-09-30T22:43:54.616Z,12.95
2017-09-30T22:45:16.422Z,12.96
2017-09-30T22:46:38.584Z,12.96
2017-09-30T22:48:00.486Z,12.97
2017-09-30T22:49:22.605Z,12.89
2017-09-30T22:50:45.204Z,12.89
2017-09-30T22:52:07.361Z,12.95
2017-09-30T22:53:29.518Z,12.93
2017-09-30T22:54:52.021Z,12.92
2017-09-30T22:56:14.173Z,12.9
2017-09-30T22:57:36.293Z,12.95
2017-09-30T22:58:58.765Z,12.89
2017-09-30T23:00:21.633Z,12.97
2017-09-30T23:01:43.769Z,12.93
2017-09-30T23:03:06.274Z,12.89
2017-09-30T23:04:28.116Z,12.92
2017-09-30T23:05:50.703Z,12.93
2017-09-30T23:07:12.845Z,12.9
2017-09-30T23:08:34.665Z,12.92
2017-09-30T23:09:56.828Z,12.89
2017-09-30T23:11:19.001Z,12.9
2017-09-30T23:12:40.822Z,12.92
2017-09-30T23:14:02.327Z,12.85
2017-09-30T23:15:24.583Z,13
2017-09-30T23:16:46.433Z,13
2017-09-30T23:18:08.351Z,12.96
2017-09-30T23:19:30.514Z,12.93
2017-09-30T23:20:53.042Z,12.87
2017-09-30T23:22:15.185Z,12.87
2017-09-30T23:23:37.313Z,12.92
2017-09-30T23:24:59.126Z,12.87
2017-09-30T23:26:20.959Z,12.89
2017-09-30T23:27:42.505Z,12.86
2017-09-30T23:29:04.014Z,12.86
2017-09-30T23:30:26.153Z,12.82
2017-09-30T23:31:48.384Z,12.87
2017-09-30T23:33:09.936Z,12.89
2017-09-30T23:34:32.405Z,12.87
2017-09-30T23:35:54.917Z,12.87
2017-09-30T23:37:16.745Z,12.87
2017-09-30T23:38:39.233Z,12.83
2017-09-30T23:40:01.050Z,12.87
2017-09-30T23:41:22.593Z,12.87
2017-09-30T23:42:44.766Z,12.9
2017-09-30T23:44:06.565Z,12.85
2017-09-30T23:45:29.188Z,12.83
2017-09-30T23:46:51.652Z,12.92
2017-09-30T23:48:13.484Z,12.85
2017-09-30T23:49:35.425Z,12.87
2017-09-30T23:50:57.887Z,12.85
2017-09-30T23:52:20.357Z,12.82
2017-09-30T23:53:42.218Z,12.83
2017-09-30T23:55:04.393Z,12.79
2017-09-30T23:56:26.223Z,12.82
2017-09-30T23:57:48.372Z,12.78
2017-09-30T23:59:10.855Z,12.83
